Startpagina
METAR-TAF:

METAR-TAF

Vliegvelden :

Flughafen Saarbrücken

Saarbrücken, Duitsland

breedte: 49-13N, lengte: 007-07E, hoogte: 322 m

Actueel weer

Dit bericht is 35 minuten geleden gemaakt, om 05:50 UTC
Wind 7 kt uit het noordoosten
Temperatuur -3°C
Vochtigheid 68%
Druk 1023 hPa
Zicht 10 km of meer
geen wolken onder 1500 m en geen cumulonimbus

METAR: EDDR 070550Z 05007KT CAVOK M03/M08 Q1023 NOSIG

Tijdstip: 07:25 (06:25 UTC)

Verwachting

Dit bericht is 1 uur en het 25 minuten geleden gemaakt, om 05:00 UTC
Verwachting geldig van 07 om 06 UTC tot 08 om 06 UTC
Wind 6 kt uit het noordoosten
Zicht 10 km of meer
geen wolken onder 1500 m en geen cumulonimbus

TAF: EDDR 070500Z 0706/0806 04006KT CAVOK

Waarnemingen en weersverwachtingen van meer dan 4000 vliegvelden (METAR en TAF).

De beschikbare stations zijn de gele en rode punten op de kaart.

Ga met uw muis naar het station om de naam te zien.

Klik dan om waarnemingen en weersverwachtingen te zien.

kaart wijzigen: klik op de groene knoppen met een zwart kruis om in te zoomen, op de groene knop met een streepje om uit te zoomen of op de groene pijlen voor aangrenzende kaarten.


METAR-TAF: